Time;durP1;ratioP1;P1;durP2;ratioP2;P2;SDS_P1;SDS_P2;PMS_P1;PMS_P2;Temp;Humidity;BMP_temperature;BMP_pressure;BME280_temperature;BME280_humidity;BME280_pressure;Samples;Min_cycle;Max_cycle;Signal;HPM_P1;HPM_P2
2022/02/06 00:02:23;;;;;;;16.45;9.77;;;5.70;99.90;;;;;;5037948;28;20115;-48
2022/02/06 00:04:50;;;;;;;15.63;9.80;;;5.70;99.90;;;;;;5038359;28;20105;-51
2022/02/06 00:07:16;;;;;;;13.52;8.90;;;5.70;99.90;;;;;;5038225;28;20029;-47
2022/02/06 00:09:43;;;;;;;14.52;9.88;;;5.70;99.90;;;;;;5038510;28;20033;-48
2022/02/06 00:12:10;;;;;;;18.60;9.40;;;5.70;99.90;;;;;;5038275;28;20442;-47
2022/02/06 00:14:35;;;;;;;14.85;9.88;;;5.70;99.90;;;;;;5038261;28;20029;-47
2022/02/06 00:17:02;;;;;;;12.07;8.63;;;5.70;99.90;;;;;;5038116;28;20030;-48
2022/02/06 00:19:27;;;;;;;15.27;9.13;;;5.70;99.90;;;;;;5038564;28;20025;-47
2022/02/06 00:21:53;;;;;;;11.80;8.35;;;5.70;99.90;;;;;;5036962;28;20543;-47
2022/02/06 00:24:27;;;;;;;12.60;8.07;;;5.70;99.90;;;;;;5038391;28;20033;-47
2022/02/06 00:26:59;;;;;;;15.85;8.70;;;5.80;99.90;;;;;;5037962;28;20030;-47
2022/02/06 00:29:45;;;;;;;14.57;8.93;;;5.80;99.90;;;;;;5038842;28;20116;-49
2022/02/06 00:32:24;;;;;;;15.13;8.75;;;5.80;99.90;;;;;;5038356;28;20124;-47
2022/02/06 00:35:49;;;;;;;11.15;7.68;;;5.80;99.90;;;;;;5038530;28;20103;-49
2022/02/06 00:40:32;;;;;;;11.63;7.22;;;5.80;99.90;;;;;;5038457;28;20107;-48
2022/02/06 00:42:58;;;;;;;13.43;8.07;;;5.80;99.90;;;;;;5038342;28;20036;-48
2022/02/06 00:45:24;;;;;;;16.55;8.38;;;5.80;99.90;;;;;;5037570;28;20037;-49
2022/02/06 00:47:49;;;;;;;11.25;7.70;;;5.80;99.90;;;;;;5037714;28;20402;-47
2022/02/06 00:50:15;;;;;;;12.73;8.13;;;5.80;99.90;;;;;;5037757;28;20109;-47
2022/02/06 00:52:51;;;;;;;10.35;7.03;;;5.80;99.90;;;;;;5038246;28;20026;-47
2022/02/06 00:55:17;;;;;;;13.18;7.72;;;5.80;99.90;;;;;;5037660;28;20376;-48
2022/02/06 00:57:42;;;;;;;10.30;7.22;;;5.80;99.90;;;;;;5038008;28;20041;-47
2022/02/06 01:00:08;;;;;;;13.95;7.90;;;5.80;99.90;;;;;;5038095;28;20029;-47
2022/02/06 01:02:34;;;;;;;13.23;7.45;;;5.80;99.90;;;;;;5038374;28;20033;-48
2022/02/06 01:05:01;;;;;;;12.95;7.70;;;5.80;99.90;;;;;;5037699;28;20396;-48
2022/02/06 01:07:26;;;;;;;10.65;7.10;;;5.80;99.90;;;;;;5038065;28;20052;-49
2022/02/06 01:09:52;;;;;;;15.20;7.28;;;5.80;99.90;;;;;;5038027;28;20498;-48
2022/02/06 01:12:22;;;;;;;11.35;7.63;;;5.80;99.90;;;;;;5036370;28;20040;-48
2022/02/06 01:15:07;;;;;;;11.10;7.13;;;5.80;99.90;;;;;;5034588;28;20034;-49
2022/02/06 01:17:41;;;;;;;13.48;7.78;;;5.80;99.90;;;;;;5034873;28;20112;-49
2022/02/06 01:20:34;;;;;;;13.07;8.35;;;5.80;99.90;;;;;;5034688;28;20033;-50
2022/02/06 01:22:59;;;;;;;10.27;7.30;;;5.80;99.90;;;;;;5034067;28;20034;-48
2022/02/06 01:25:33;;;;;;;12.13;7.28;;;5.90;99.90;;;;;;5034197;28;20317;-47
2022/02/06 01:28:04;;;;;;;11.40;7.18;;;5.90;99.90;;;;;;5034695;28;20026;-48
2022/02/06 01:33:04;;;;;;;11.57;7.00;;;5.90;99.90;;;;;;5034774;28;20042;-48
2022/02/06 01:35:38;;;;;;;12.10;7.15;;;6.00;99.90;;;;;;5034163;28;20029;-48
2022/02/06 01:40:53;;;;;;;11.57;7.65;;;6.00;99.90;;;;;;5034547;28;20033;-48
2022/02/06 01:43:22;;;;;;;13.45;7.72;;;6.00;99.90;;;;;;5034227;28;20437;-49
2022/02/06 02:04:42;;;;;;;10.38;6.75;;;6.10;99.90;;;;;;5093290;28;20024;-53
2022/02/06 02:46:11;;;;;;;8.98;5.65;;;6.10;99.90;;;;;;5092222;28;20040;-51
2022/02/06 02:48:41;;;;;;;10.07;5.80;;;6.10;99.90;;;;;;5092357;28;20408;-53
2022/02/06 02:51:09;;;;;;;9.95;5.82;;;6.20;99.90;;;;;;5092612;28;20078;-53
2022/02/06 02:53:41;;;;;;;8.43;5.18;;;6.20;99.90;;;;;;5092379;28;20443;-53
2022/02/06 03:01:19;;;;;;;8.73;4.90;;;6.20;99.90;;;;;;5092232;28;20024;-50
2022/02/06 03:03:45;;;;;;;8.43;5.38;;;6.20;99.90;;;;;;5092385;28;20112;-49
2022/02/06 03:06:10;;;;;;;10.32;5.47;;;6.20;99.90;;;;;;5091872;28;20024;-53
2022/02/06 03:08:38;;;;;;;11.48;5.85;;;6.20;99.90;;;;;;5092120;28;20096;-53
2022/02/06 03:11:08;;;;;;;10.75;5.55;;;6.20;99.90;;;;;;5092053;28;20378;-53
2022/02/06 03:14:23;;;;;;;10.23;6.15;;;6.30;99.90;;;;;;5091955;28;20024;-54
2022/02/06 03:16:31;;;;;;;7.13;4.60;;;6.30;99.90;;;;;;5080760;28;20032;-49
2022/02/06 03:19:02;;;;;;;6.95;5.30;;;6.30;99.90;;;;;;5091998;28;20028;-49
2022/02/06 03:21:30;;;;;;;6.20;5.03;;;6.30;99.90;;;;;;5092120;28;20027;-50
2022/02/06 03:24:06;;;;;;;9.43;5.70;;;6.30;99.90;;;;;;5091547;28;20024;-48
2022/02/06 03:26:31;;;;;;;10.05;5.85;;;6.30;99.90;;;;;;5091754;28;20097;-57
2022/02/06 03:28:57;;;;;;;10.55;6.15;;;6.30;99.90;;;;;;5091803;28;20516;-51
2022/02/06 03:31:23;;;;;;;6.68;5.50;;;6.40;99.90;;;;;;5089146;28;20028;-49
2022/02/06 03:33:50;;;;;;;11.60;6.07;;;6.40;99.90;;;;;;5064322;28;20162;-49
2022/02/06 03:36:18;;;;;;;8.57;5.30;;;6.40;99.90;;;;;;5087963;28;20039;-59
2022/02/06 03:38:45;;;;;;;7.70;4.68;;;6.40;99.90;;;;;;5086727;28;20110;-50
2022/02/06 03:41:13;;;;;;;6.95;4.78;;;6.40;99.90;;;;;;5082445;28;20105;-55
2022/02/06 03:43:52;;;;;;;8.05;5.43;;;6.40;99.90;;;;;;5091164;28;20028;-54
2022/02/06 03:48:49;;;;;;;10.02;5.50;;;6.40;99.90;;;;;;5073763;28;20103;-51
2022/02/06 03:51:20;;;;;;;13.07;5.63;;;6.40;99.90;;;;;;5091115;28;20028;-50
2022/02/06 03:53:48;;;;;;;8.90;5.28;;;6.50;99.90;;;;;;5070943;28;20123;-50
2022/02/06 03:56:15;;;;;;;10.32;5.32;;;6.50;99.90;;;;;;5081452;28;20105;-49
2022/02/06 03:58:41;;;;;;;9.75;4.82;;;6.50;99.90;;;;;;5091046;28;20080;-49
2022/02/06 04:01:06;;;;;;;11.45;5.70;;;6.50;99.90;;;;;;5080766;28;20025;-55
2022/02/06 04:03:32;;;;;;;10.30;5.30;;;6.40;99.90;;;;;;5086199;28;20036;-49
2022/02/06 04:05:57;;;;;;;6.00;4.10;;;6.40;99.90;;;;;;5082340;28;20418;-53
2022/02/06 04:08:24;;;;;;;9.80;4.65;;;6.50;99.90;;;;;;5090637;28;20024;-49
2022/02/06 04:10:52;;;;;;;7.53;4.53;;;6.50;99.90;;;;;;5091139;28;20036;-49
2022/02/06 04:13:24;;;;;;;10.40;4.00;;;6.50;99.90;;;;;;5090461;28;20036;-53
2022/02/06 04:15:57;;;;;;;7.43;4.78;;;6.50;99.90;;;;;;5090804;28;20031;-51
2022/02/06 04:20:52;;;;;;;4.15;3.50;;;6.50;99.90;;;;;;5082907;28;20028;-51
2022/02/06 04:23:17;;;;;;;6.43;3.95;;;6.50;99.90;;;;;;5089261;28;20085;-53
2022/02/06 04:25:43;;;;;;;4.97;3.90;;;6.50;99.90;;;;;;5090673;28;20224;-56
2022/02/06 04:28:08;;;;;;;6.93;4.35;;;6.50;99.90;;;;;;5081957;28;20020;-52
2022/02/06 04:30:34;;;;;;;7.93;4.45;;;6.50;99.90;;;;;;5090827;28;20036;-54
2022/02/06 04:33:00;;;;;;;7.32;4.47;;;6.50;99.90;;;;;;5063796;28;20473;-60
2022/02/06 04:35:31;;;;;;;5.70;4.03;;;6.50;99.90;;;;;;5081693;28;20093;-54
2022/02/06 04:48:31;;;;;;;8.68;4.07;;;6.60;99.90;;;;;;5089212;28;20393;-51
2022/02/06 05:30:58;;;;;;;7.00;3.97;;;6.80;99.90;;;;;;5094188;28;20151;-50
2022/02/06 05:33:24;;;;;;;6.55;4.20;;;6.80;99.90;;;;;;5087343;28;20086;-49
2022/02/06 05:35:49;;;;;;;7.53;4.38;;;6.80;99.90;;;;;;5093394;28;20032;-52
2022/02/06 05:38:15;;;;;;;8.32;4.68;;;6.80;99.90;;;;;;5093004;28;20481;-50
2022/02/06 05:40:41;;;;;;;5.88;4.35;;;6.80;99.90;;;;;;5093598;28;20370;-56
2022/02/06 05:43:06;;;;;;;7.38;4.07;;;6.80;99.90;;;;;;5092921;28;20025;-51
2022/02/06 05:45:32;;;;;;;4.50;3.05;;;6.80;99.90;;;;;;5083934;28;20040;-51
2022/02/06 05:47:58;;;;;;;5.90;3.15;;;6.80;99.90;;;;;;5092528;28;20085;-50
2022/02/06 05:50:24;;;;;;;6.32;3.10;;;6.90;99.90;;;;;;5086557;28;20051;-53
2022/02/06 05:52:50;;;;;;;6.28;2.65;;;6.80;99.90;;;;;;5091011;28;20118;-57
2022/02/06 05:55:16;;;;;;;7.38;3.05;;;6.90;99.90;;;;;;5084265;28;20032;-50
2022/02/06 05:57:42;;;;;;;6.90;2.80;;;6.90;99.90;;;;;;5074734;28;20035;-53
2022/02/06 06:00:09;;;;;;;5.47;2.58;;;6.90;99.90;;;;;;5092885;28;20039;-52
2022/02/06 06:02:36;;;;;;;5.47;2.45;;;6.90;99.90;;;;;;5092672;28;20043;-51
2022/02/06 06:05:02;;;;;;;7.30;3.05;;;6.90;99.90;;;;;;5086859;28;20020;-54
2022/02/06 06:07:28;;;;;;;5.00;2.20;;;6.90;99.90;;;;;;5092186;28;20038;-52
2022/02/06 06:09:54;;;;;;;4.35;2.17;;;6.90;99.90;;;;;;5093064;28;20032;-55
2022/02/06 06:12:19;;;;;;;5.40;2.45;;;6.90;99.90;;;;;;5091457;28;20048;-51
2022/02/06 06:14:47;;;;;;;5.35;2.20;;;6.90;99.90;;;;;;5093070;28;20055;-51
2022/02/06 06:17:13;;;;;;;4.85;2.38;;;6.90;99.90;;;;;;5092355;28;20086;-50
2022/02/06 06:19:43;;;;;;;5.00;2.15;;;6.90;99.90;;;;;;5066320;28;20341;-55
2022/02/06 06:22:10;;;;;;;5.80;2.22;;;6.90;99.90;;;;;;5087436;28;20021;-55
2022/02/06 06:24:41;;;;;;;4.97;2.15;;;6.90;99.90;;;;;;5089246;28;20028;-56
2022/02/06 06:27:07;;;;;;;5.80;2.08;;;6.90;99.90;;;;;;5078557;28;20052;-55
2022/02/06 06:29:33;;;;;;;4.32;1.70;;;7.00;99.90;;;;;;5088489;28;20024;-57
2022/02/06 06:31:58;;;;;;;5.53;1.75;;;7.00;99.90;;;;;;5088877;28;20035;-54
2022/02/06 06:34:24;;;;;;;4.00;1.65;;;7.00;99.90;;;;;;5064490;28;20091;-55
2022/02/06 06:36:50;;;;;;;4.72;1.50;;;7.00;99.90;;;;;;5089832;28;20424;-57
2022/02/06 06:39:22;;;;;;;5.18;1.77;;;6.90;99.90;;;;;;5086443;28;20495;-57
2022/02/06 06:41:48;;;;;;;4.28;1.85;;;6.90;99.90;;;;;;5090165;28;20481;-56
2022/02/06 06:44:14;;;;;;;4.50;1.83;;;6.90;99.90;;;;;;5080439;28;20134;-55
2022/02/06 06:46:40;;;;;;;3.83;1.67;;;6.90;99.90;;;;;;5091083;28;20484;-57
2022/02/06 06:49:05;;;;;;;3.25;1.13;;;6.90;99.90;;;;;;5084751;28;20106;-56
2022/02/06 06:51:31;;;;;;;3.17;1.45;;;6.90;99.90;;;;;;5092212;28;20039;-58
2022/02/06 06:53:57;;;;;;;3.47;1.10;;;6.80;99.90;;;;;;5078760;28;20499;-57
2022/02/06 06:56:32;;;;;;;3.63;1.00;;;6.80;99.90;;;;;;5091739;28;20123;-57
2022/02/06 06:58:58;;;;;;;5.97;1.20;;;6.80;99.90;;;;;;5092055;28;20111;-57
2022/02/06 07:03:49;;;;;;;2.60;0.90;;;6.70;99.90;;;;;;5077845;28;20048;-56
2022/02/06 07:06:15;;;;;;;3.13;0.70;;;6.60;99.90;;;;;;5091186;28;20393;-57
2022/02/06 07:08:40;;;;;;;6.30;1.20;;;6.60;99.90;;;;;;5083735;28;20032;-54
2022/02/06 07:11:06;;;;;;;2.55;0.80;;;6.60;99.90;;;;;;5092043;28;20024;-57
2022/02/06 07:13:32;;;;;;;5.43;1.52;;;6.60;99.90;;;;;;5077863;28;20287;-59
2022/02/06 07:15:57;;;;;;;2.50;0.80;;;6.50;99.90;;;;;;5090993;28;20039;-58
2022/02/06 07:18:23;;;;;;;8.63;0.82;;;6.50;99.90;;;;;;5044728;28;20463;-56
2022/02/06 07:20:50;;;;;;;5.40;1.38;;;6.50;99.90;;;;;;5090094;28;20488;-59
2022/02/06 07:23:16;;;;;;;5.97;1.23;;;6.50;99.90;;;;;;5090153;28;20031;-57
2022/02/06 07:25:46;;;;;;;3.50;0.98;;;6.50;99.90;;;;;;5091406;28;20020;-57
2022/02/06 07:28:16;;;;;;;4.68;1.10;;;6.50;99.90;;;;;;5083853;28;20016;-54
2022/02/06 07:30:43;;;;;;;6.95;1.05;;;6.40;99.90;;;;;;5091725;28;20039;-57
2022/02/06 07:33:11;;;;;;;3.28;0.93;;;6.50;99.90;;;;;;5082939;28;20476;-58
2022/02/06 07:35:37;;;;;;;5.60;1.35;;;6.40;99.90;;;;;;5091120;28;20085;-60
2022/02/06 07:38:02;;;;;;;4.82;1.10;;;6.40;99.90;;;;;;5082309;28;20036;-55
2022/02/06 07:40:28;;;;;;;4.30;1.20;;;6.40;99.90;;;;;;5091333;28;20118;-56
2022/02/06 07:42:54;;;;;;;4.97;1.10;;;6.40;99.90;;;;;;5082674;28;20029;-59
2022/02/06 07:45:20;;;;;;;8.43;1.27;;;6.40;99.90;;;;;;5105200;22;20040;-52
2022/02/06 07:47:47;;;;;;;6.68;1.85;;;6.30;99.90;;;;;;5089456;28;20024;-51
2022/02/06 07:50:14;;;;;;;4.30;1.00;;;6.30;99.90;;;;;;5084886;28;20060;-51
2022/02/06 07:52:39;;;;;;;4.13;1.30;;;6.30;99.90;;;;;;5089858;28;20371;-52
2022/02/06 07:55:07;;;;;;;3.83;0.90;;;6.30;99.90;;;;;;5091907;28;20067;-51
2022/02/06 07:57:33;;;;;;;3.20;0.77;;;6.30;99.90;;;;;;5093147;28;20047;-52
2022/02/06 07:59:59;;;;;;;2.72;0.75;;;6.30;99.90;;;;;;5088054;28;20040;-51
2022/02/06 08:02:25;;;;;;;2.28;0.73;;;6.30;99.90;;;;;;5079743;28;20026;-52
2022/02/06 08:04:51;;;;;;;5.90;1.02;;;6.30;99.90;;;;;;5088760;28;20492;-52
2022/02/06 08:07:17;;;;;;;2.78;0.68;;;6.30;99.90;;;;;;5077547;28;20065;-53
2022/02/06 08:09:53;;;;;;;3.65;1.17;;;6.30;99.90;;;;;;5090752;28;20062;-52
2022/02/06 08:12:32;;;;;;;1.90;0.65;;;6.30;99.90;;;;;;5078256;28;20036;-54
2022/02/06 08:15:06;;;;;;;3.38;0.70;;;6.30;99.90;;;;;;5088223;28;20560;-52
2022/02/06 08:17:36;;;;;;;2.78;0.47;;;6.30;99.90;;;;;;5079720;28;20063;-51
2022/02/06 08:20:04;;;;;;;5.97;1.30;;;6.30;99.90;;;;;;5082335;28;20024;-54
2022/02/06 08:22:31;;;;;;;3.28;1.00;;;6.30;99.90;;;;;;5085690;28;20028;-51
2022/02/06 08:24:57;;;;;;;4.25;0.70;;;6.30;99.90;;;;;;5092464;28;20389;-52
2022/02/06 08:27:25;;;;;;;1.95;0.63;;;6.30;99.90;;;;;;5099849;28;20031;-51
2022/02/06 08:29:51;;;;;;;4.18;1.35;;;6.30;99.90;;;;;;5078129;28;20040;-50
2022/02/06 08:32:19;;;;;;;2.83;0.40;;;6.30;99.90;;;;;;5091014;28;20039;-50
2022/02/06 08:34:45;;;;;;;2.35;0.45;;;6.40;99.90;;;;;;5074846;28;20035;-50
2022/02/06 08:37:11;;;;;;;1.85;0.40;;;6.40;99.90;;;;;;5089190;28;20033;-50
2022/02/06 08:39:38;;;;;;;1.50;0.40;;;6.40;99.90;;;;;;5080504;28;20477;-53
2022/02/06 08:42:08;;;;;;;3.70;0.52;;;6.40;99.90;;;;;;5094870;28;20081;-51
2022/02/06 08:44:35;;;;;;;3.00;0.43;;;6.50;99.90;;;;;;5091736;28;20379;-52
2022/02/06 08:47:01;;;;;;;2.40;0.50;;;6.40;99.90;;;;;;5093963;28;20040;-52
2022/02/06 08:49:26;;;;;;;0.50;0.38;;;6.40;99.90;;;;;;5073052;28;20119;-50
2022/02/06 08:51:52;;;;;;;1.48;0.60;;;6.50;99.90;;;;;;5092171;28;20090;-51
2022/02/06 08:54:20;;;;;;;2.47;0.57;;;6.50;99.90;;;;;;5088059;28;20029;-52
2022/02/06 08:56:46;;;;;;;1.92;0.45;;;6.40;99.90;;;;;;5056633;28;20430;-52
2022/02/06 08:59:12;;;;;;;1.95;0.70;;;6.50;99.90;;;;;;5098903;28;20034;-52
2022/02/06 09:01:38;;;;;;;1.75;0.40;;;6.40;99.90;;;;;;5081160;28;20056;-51
2022/02/06 09:04:04;;;;;;;6.47;0.73;;;6.40;99.90;;;;;;5091078;28;20032;-52
2022/02/06 09:06:31;;;;;;;1.88;0.50;;;6.40;99.90;;;;;;5095437;28;20028;-51
2022/02/06 09:08:58;;;;;;;2.00;0.40;;;6.40;99.90;;;;;;5095465;28;20134;-52
2022/02/06 09:11:25;;;;;;;2.78;0.60;;;6.40;99.90;;;;;;5089804;28;20028;-52
2022/02/06 09:13:52;;;;;;;3.58;0.30;;;6.40;99.90;;;;;;5093111;28;20488;-51
2022/02/06 09:16:18;;;;;;;2.42;0.70;;;6.40;99.90;;;;;;5086147;28;20435;-51
2022/02/06 09:18:44;;;;;;;4.68;0.82;;;6.40;99.90;;;;;;5088726;28;20355;-50
2022/02/06 09:21:09;;;;;;;4.85;0.80;;;6.40;99.90;;;;;;5094255;28;20477;-50
2022/02/06 09:23:35;;;;;;;4.65;0.65;;;6.40;99.90;;;;;;5082792;28;20044;-50
2022/02/06 09:26:01;;;;;;;3.45;0.95;;;6.40;99.90;;;;;;5086618;28;20375;-52
2022/02/06 09:28:27;;;;;;;3.28;1.50;;;6.30;99.90;;;;;;5091290;28;20541;-52
2022/02/06 09:30:52;;;;;;;1.90;0.70;;;6.40;99.90;;;;;;5077465;28;20028;-50
2022/02/06 09:35:44;;;;;;;1.85;0.63;;;6.40;99.90;;;;;;5094621;28;20064;-51
2022/02/06 09:38:09;;;;;;;5.07;1.83;;;6.40;99.90;;;;;;5098138;28;20024;-51
2022/02/06 09:40:42;;;;;;;1.52;0.52;;;6.50;99.90;;;;;;5073896;28;20529;-51
2022/02/06 09:43:09;;;;;;;1.65;0.52;;;6.50;99.90;;;;;;5086151;28;20016;-51
2022/02/06 09:45:38;;;;;;;2.95;0.80;;;6.50;99.90;;;;;;5094258;28;20036;-50
2022/02/06 09:48:04;;;;;;;2.40;0.70;;;6.50;99.90;;;;;;5097555;28;20392;-51
2022/02/06 09:50:30;;;;;;;3.22;0.68;;;6.50;99.90;;;;;;5082564;28;20028;-51
2022/02/06 09:52:56;;;;;;;5.53;0.70;;;6.50;99.90;;;;;;5087392;28;20181;-51
2022/02/06 09:55:22;;;;;;;3.03;0.63;;;6.50;99.90;;;;;;5095438;28;20020;-52
2022/02/06 10:00:34;;;;;;;2.80;0.80;;;6.50;99.90;;;;;;5113307;28;20082;-51
2022/02/06 10:03:04;;;;;;;2.70;0.80;;;6.50;99.90;;;;;;5089039;28;20052;-51
2022/02/06 10:05:33;;;;;;;2.53;0.40;;;6.60;99.90;;;;;;5074962;28;20020;-51
2022/02/06 10:08:31;;;;;;;7.03;1.45;;;6.50;99.90;;;;;;5095534;28;20032;-52
2022/02/06 10:11:14;;;;;;;4.10;1.00;;;6.50;99.90;;;;;;5086261;28;20089;-51
2022/02/06 10:13:44;;;;;;;3.92;0.88;;;6.50;99.90;;;;;;5074873;28;20077;-52
2022/02/06 10:16:12;;;;;;;5.32;1.30;;;6.50;99.90;;;;;;5089753;28;20046;-53
2022/02/06 10:18:39;;;;;;;3.38;0.95;;;6.50;99.90;;;;;;5101451;28;20020;-50
2022/02/06 10:21:06;;;;;;;4.07;1.48;;;6.50;99.90;;;;;;5082091;28;20039;-50
2022/02/06 10:26:10;;;;;;;8.55;1.08;;;6.40;99.90;;;;;;5089765;28;20381;-52
2022/02/06 10:28:44;;;;;;;4.82;1.10;;;6.50;99.90;;;;;;5076458;28;20366;-52
2022/02/06 10:31:10;;;;;;;4.32;0.85;;;6.50;99.90;;;;;;5086346;28;20465;-53
2022/02/06 10:33:44;;;;;;;4.90;1.00;;;6.50;99.90;;;;;;5092243;28;20401;-51
2022/02/06 10:36:10;;;;;;;4.38;1.10;;;6.50;99.90;;;;;;5067278;28;20032;-51
2022/02/06 10:38:36;;;;;;;1.98;1.48;;;6.50;99.90;;;;;;5083833;28;20417;-50
2022/02/06 10:41:13;;;;;;;4.15;2.00;;;6.40;99.90;;;;;;5105153;28;20084;-51
2022/02/06 10:44:02;;;;;;;5.10;2.70;;;6.50;99.90;;;;;;5099489;28;20028;-50
2022/02/06 10:46:29;;;;;;;5.38;1.77;;;6.50;99.90;;;;;;5080553;28;20029;-51
2022/02/06 10:49:01;;;;;;;6.18;2.90;;;6.50;99.90;;;;;;5079927;28;20032;-50
2022/02/06 10:51:42;;;;;;;4.30;2.60;;;6.50;99.90;;;;;;5082188;28;20029;-52
2022/02/06 10:54:14;;;;;;;6.07;2.70;;;6.50;99.90;;;;;;5092371;28;20030;-50
2022/02/06 10:56:57;;;;;;;3.70;1.75;;;6.40;99.90;;;;;;5078327;28;20025;-50
2022/02/06 10:59:22;;;;;;;2.80;1.60;;;6.40;99.90;;;;;;5088088;28;20492;-51
2022/02/06 11:01:48;;;;;;;3.53;1.67;;;6.50;99.90;;;;;;5076002;28;20062;-50
2022/02/06 11:04:43;;;;;;;8.13;2.20;;;6.50;99.90;;;;;;5093634;28;20034;-51
2022/02/06 11:07:16;;;;;;;7.20;2.25;;;6.40;99.90;;;;;;5071619;28;20116;-50
2022/02/06 11:09:42;;;;;;;6.80;2.58;;;6.50;99.90;;;;;;5099311;28;20040;-51
2022/02/06 11:12:13;;;;;;;7.38;2.38;;;6.50;99.90;;;;;;5072375;28;20101;-51
2022/02/06 11:14:45;;;;;;;12.50;2.92;;;6.50;99.90;;;;;;5099341;28;20038;-50
2022/02/06 11:17:22;;;;;;;7.68;2.85;;;6.50;99.90;;;;;;5072434;28;20059;-51
2022/02/06 11:20:10;;;;;;;8.23;4.78;;;6.50;99.90;;;;;;5099072;28;20046;-50
2022/02/06 11:22:52;;;;;;;9.02;3.20;;;6.50;99.90;;;;;;5073833;28;20130;-51
2022/02/06 11:25:18;;;;;;;10.63;3.45;;;6.50;99.90;;;;;;5085051;28;20027;-51
2022/02/06 11:27:44;;;;;;;7.55;2.97;;;6.50;99.90;;;;;;5093475;28;20103;-52
2022/02/06 11:30:10;;;;;;;4.85;3.50;;;6.50;99.90;;;;;;5096042;28;20108;-51
2022/02/06 11:32:37;;;;;;;6.88;2.90;;;6.50;99.90;;;;;;5072402;28;20520;-52
2022/02/06 11:35:11;;;;;;;6.57;2.00;;;6.50;99.90;;;;;;5082261;28;20500;-50
2022/02/06 11:44:12;;;;;;;2.65;0.90;;;6.10;99.90;;;;;;5001694;28;20140;-51
2022/02/06 11:46:54;;;;;;;3.05;0.75;;;6.00;99.90;;;;;;5078297;28;20037;-50
2022/02/06 11:49:21;;;;;;;4.97;0.77;;;6.00;99.90;;;;;;5083062;28;20462;-50
2022/02/06 11:51:57;;;;;;;1.65;0.80;;;5.90;99.90;;;;;;5086879;28;20052;-50
2022/02/06 11:54:33;;;;;;;2.33;0.90;;;5.90;99.90;;;;;;5082523;28;20033;-52
2022/02/06 12:00:06;;;;;;;2.45;0.90;;;5.90;99.90;;;;;;5085150;28;20035;-51
2022/02/06 12:02:33;;;;;;;1.38;0.65;;;5.90;99.90;;;;;;5079993;28;20017;-50
2022/02/06 12:05:28;;;;;;;3.50;0.90;;;5.90;99.90;;;;;;5093407;28;20051;-53
2022/02/06 12:07:55;;;;;;;3.13;1.02;;;5.90;99.90;;;;;;5097310;28;20519;-51
2022/02/06 12:11:07;;;;;;;2.83;0.85;;;5.90;99.90;;;;;;5097452;28;20016;-51
2022/02/06 12:13:34;;;;;;;2.88;1.08;;;5.80;99.90;;;;;;5071760;28;20032;-50
2022/02/06 12:16:06;;;;;;;3.28;1.00;;;5.90;99.90;;;;;;5091387;28;20044;-50
2022/02/06 12:18:34;;;;;;;3.03;1.40;;;5.80;99.90;;;;;;5109220;28;20031;-50
2022/02/06 12:21:12;;;;;;;4.35;1.30;;;5.80;99.90;;;;;;5111931;28;20056;-51
2022/02/06 12:23:51;;;;;;;4.45;0.90;;;5.70;99.90;;;;;;5112161;28;20020;-50
2022/02/06 12:26:30;;;;;;;3.20;0.60;;;5.50;99.90;;;;;;5085224;28;20029;-49
2022/02/06 12:28:57;;;;;;;1.40;0.60;;;5.30;99.90;;;;;;5076968;28;20032;-50
2022/02/06 12:31:28;;;;;;;1.35;0.82;;;5.20;99.90;;;;;;5083998;28;20378;-49
2022/02/06 12:34:16;;;;;;;1.53;0.73;;;5.20;99.90;;;;;;5092283;28;20028;-49
2022/02/06 12:39:26;;;;;;;2.58;1.10;;;5.10;99.90;;;;;;5086941;28;20096;-49
2022/02/06 12:41:54;;;;;;;1.23;0.70;;;5.00;99.90;;;;;;5091745;28;20024;-49
2022/02/06 12:44:20;;;;;;;1.05;0.50;;;5.00;99.90;;;;;;5088904;28;20016;-49
2022/02/06 12:46:48;;;;;;;1.27;0.60;;;5.00;99.90;;;;;;5091390;28;20030;-50
2022/02/06 12:49:20;;;;;;;3.47;0.57;;;5.00;99.90;;;;;;5078797;28;20107;-51
2022/02/06 12:51:53;;;;;;;0.93;0.45;;;4.90;99.90;;;;;;5072716;28;20036;-50
2022/02/06 12:54:20;;;;;;;2.20;0.60;;;5.00;99.90;;;;;;5069697;28;20077;-53
2022/02/06 12:56:46;;;;;;;1.40;0.55;;;4.90;99.90;;;;;;5071382;28;20049;-51
2022/02/06 12:59:17;;;;;;;2.90;1.08;;;5.00;99.90;;;;;;5066519;28;20040;-50
2022/02/06 13:01:45;;;;;;;8.07;1.33;;;5.00;99.90;;;;;;5067379;28;20032;-49
2022/02/06 13:04:14;;;;;;;3.35;1.58;;;5.00;99.90;;;;;;5068204;28;20424;-50
2022/02/06 13:06:48;;;;;;;2.65;1.23;;;4.80;99.90;;;;;;5089704;28;20020;-49
2022/02/06 13:09:24;;;;;;;1.15;0.82;;;4.80;99.90;;;;;;5093417;28;20039;-50
2022/02/06 13:12:07;;;;;;;3.92;0.77;;;4.80;99.90;;;;;;5095656;28;20334;-50
2022/02/06 13:22:37;;;;;;;2.58;1.35;;;4.60;99.90;;;;;;5097168;28;20157;-49
2022/02/06 13:25:30;;;;;;;4.22;1.60;;;4.60;99.90;;;;;;5084761;28;20448;-49
2022/02/06 13:33:37;;;;;;;6.70;1.33;;;4.60;99.90;;;;;;5094270;28;20039;-50
2022/02/06 13:36:20;;;;;;;1.20;0.90;;;4.50;99.90;;;;;;5092890;28;20399;-50
2022/02/06 13:39:11;;;;;;;7.20;2.30;;;4.50;99.90;;;;;;5092865;28;20360;-49
2022/02/06 13:41:32;;;;;;;7.05;1.90;;;4.40;99.90;;;;;;5091922;28;20076;-49
2022/02/06 13:44:03;;;;;;;3.30;1.90;;;4.40;99.90;;;;;;5088604;28;20464;-49
2022/02/06 13:46:34;;;;;;;4.40;1.42;;;4.40;99.90;;;;;;5091826;28;20077;-50
2022/02/06 13:49:00;;;;;;;3.45;1.40;;;4.40;99.90;;;;;;5074421;28;20024;-54
2022/02/06 13:51:28;;;;;;;2.08;1.05;;;4.40;99.90;;;;;;5091967;28;20021;-53
2022/02/06 13:54:03;;;;;;;5.68;0.73;;;4.40;99.90;;;;;;5091854;28;20020;-49
2022/02/06 13:56:30;;;;;;;1.52;0.77;;;4.40;99.90;;;;;;5093631;28;20583;-54
2022/02/06 13:58:57;;;;;;;2.72;1.00;;;4.40;99.90;;;;;;5101084;28;20024;-51
2022/02/06 14:01:23;;;;;;;3.92;1.00;;;4.50;99.90;;;;;;5093785;28;20024;-50
2022/02/06 14:03:52;;;;;;;3.92;2.00;;;4.40;99.90;;;;;;5093648;28;20032;-50
2022/02/06 14:06:21;;;;;;;4.53;1.70;;;4.40;99.90;;;;;;5093360;28;20054;-50
2022/02/06 14:09:07;;;;;;;5.93;1.63;;;4.40;99.90;;;;;;5094814;28;20180;-51
2022/02/06 14:11:34;;;;;;;3.50;1.40;;;4.40;99.90;;;;;;5101231;28;20393;-50
2022/02/06 14:14:25;;;;;;;3.20;1.10;;;4.50;99.90;;;;;;5093705;28;20024;-49
2022/02/06 14:16:54;;;;;;;2.03;1.08;;;4.40;99.90;;;;;;5093030;28;20481;-49
2022/02/06 14:19:35;;;;;;;5.03;1.10;;;4.50;99.90;;;;;;5083041;28;20067;-49
2022/02/06 14:22:02;;;;;;;1.83;1.02;;;4.50;99.90;;;;;;5093425;28;20465;-48
2022/02/06 14:24:28;;;;;;;3.50;1.33;;;4.40;99.90;;;;;;5093218;28;20077;-48
2022/02/06 14:27:06;;;;;;;2.72;1.00;;;4.40;99.90;;;;;;5088402;28;20024;-49
2022/02/06 14:29:32;;;;;;;2.00;1.23;;;4.50;99.90;;;;;;5092709;28;20511;-48
2022/02/06 14:32:14;;;;;;;4.60;1.05;;;4.40;99.90;;;;;;5092935;28;20028;-50
2022/02/06 14:34:54;;;;;;;4.50;1.33;;;4.40;99.90;;;;;;5088351;28;20055;-48
2022/02/06 14:37:22;;;;;;;2.85;1.38;;;4.40;99.90;;;;;;5091586;28;20039;-50
2022/02/06 14:42:58;;;;;;;6.10;1.63;;;4.50;99.90;;;;;;5085311;28;20071;-48
2022/02/06 14:45:23;;;;;;;3.53;1.70;;;4.50;99.90;;;;;;5085539;28;20028;-48
2022/02/06 14:47:49;;;;;;;4.65;2.20;;;4.60;99.90;;;;;;5091551;28;20043;-49
2022/02/06 14:50:17;;;;;;;2.40;1.60;;;4.60;99.90;;;;;;5073066;28;20047;-49
2022/02/06 14:52:44;;;;;;;3.83;1.77;;;4.60;99.90;;;;;;5098884;28;20080;-49
2022/02/06 14:55:11;;;;;;;4.25;1.83;;;4.70;99.90;;;;;;5097244;28;20074;-49
2022/02/06 14:57:36;;;;;;;3.28;1.20;;;4.70;99.90;;;;;;5077623;28;20064;-49
2022/02/06 15:00:05;;;;;;;7.20;1.67;;;4.80;99.90;;;;;;5092198;28;20063;-49
2022/02/06 15:02:30;;;;;;;3.92;1.40;;;4.80;99.90;;;;;;5091575;28;20114;-49
2022/02/06 15:04:56;;;;;;;10.48;1.88;;;4.80;99.90;;;;;;5090061;28;20560;-48
2022/02/06 15:07:21;;;;;;;3.63;1.75;;;4.90;99.90;;;;;;5087370;28;20016;-48
2022/02/06 15:09:47;;;;;;;11.65;4.10;;;4.90;99.90;;;;;;5091928;28;20036;-48
2022/02/06 15:12:13;;;;;;;9.13;3.13;;;4.90;99.90;;;;;;5093831;28;20481;-49
2022/02/06 15:14:38;;;;;;;5.30;2.60;;;4.90;99.90;;;;;;5106477;28;20028;-52
2022/02/06 15:17:04;;;;;;;6.13;2.75;;;5.00;99.90;;;;;;5091287;28;20516;-48
2022/02/06 15:19:32;;;;;;;6.22;2.00;;;5.00;99.90;;;;;;5094839;28;20033;-49
2022/02/06 15:21:59;;;;;;;5.25;1.70;;;5.00;99.90;;;;;;5091329;28;20352;-49
2022/02/06 15:24:25;;;;;;;7.25;1.30;;;5.00;99.90;;;;;;5107381;28;20027;-48
2022/02/06 15:26:52;;;;;;;8.02;1.90;;;5.00;99.90;;;;;;5096283;28;20036;-51
2022/02/06 15:29:18;;;;;;;5.57;1.50;;;5.10;99.90;;;;;;5089785;28;20031;-50
2022/02/06 15:31:44;;;;;;;12.45;2.00;;;5.10;99.90;;;;;;5091660;28;20493;-49
2022/02/06 15:34:10;;;;;;;8.55;2.13;;;5.10;99.90;;;;;;5086142;28;20047;-47
2022/02/06 15:36:38;;;;;;;8.57;3.08;;;5.20;99.90;;;;;;5082796;28;20052;-49
2022/02/06 15:39:20;;;;;;;10.98;2.30;;;5.20;99.90;;;;;;5087930;28;20020;-49
2022/02/06 15:41:49;;;;;;;12.43;3.65;;;5.20;99.90;;;;;;5098805;28;20035;-51
2022/02/06 15:44:15;;;;;;;10.43;3.00;;;5.20;99.90;;;;;;5085041;28;20032;-50
2022/02/06 15:46:40;;;;;;;17.67;3.30;;;5.20;99.90;;;;;;5085170;28;20039;-50
2022/02/06 15:49:06;;;;;;;15.35;3.75;;;5.20;99.90;;;;;;5108967;28;20081;-47
2022/02/06 15:51:32;;;;;;;9.88;2.60;;;5.30;99.90;;;;;;5098955;28;20500;-49
2022/02/06 15:53:58;;;;;;;8.48;2.47;;;5.30;99.90;;;;;;5085389;28;20016;-51